sensor_id;sensor_type;location;lat;lon;timestamp;temperature;humidity
74934;DHT22;63499;53.232;7.492;2022-09-23T00:01:00;10.80;99.90
74934;DHT22;63499;53.232;7.492;2022-09-23T00:03:28;10.80;99.90
74934;DHT22;63499;53.232;7.492;2022-09-23T00:06:02;10.80;99.90
74934;DHT22;63499;53.232;7.492;2022-09-23T00:08:29;10.80;99.90
74934;DHT22;63499;53.232;7.492;2022-09-23T00:10:56;10.70;99.90
74934;DHT22;63499;53.232;7.492;2022-09-23T00:13:24;10.70;99.90
74934;DHT22;63499;53.232;7.492;2022-09-23T00:15:51;10.70;99.90
74934;DHT22;63499;53.232;7.492;2022-09-23T00:18:17;10.70;99.90
74934;DHT22;63499;53.232;7.492;2022-09-23T00:20:45;10.70;99.90
74934;DHT22;63499;53.232;7.492;2022-09-23T00:23:11;10.70;99.90
74934;DHT22;63499;53.232;7.492;2022-09-23T00:25:37;10.70;99.90
74934;DHT22;63499;53.232;7.492;2022-09-23T00:28:03;10.70;99.90
74934;DHT22;63499;53.232;7.492;2022-09-23T00:30:29;10.70;99.90
74934;DHT22;63499;53.232;7.492;2022-09-23T00:32:55;10.70;99.90
74934;DHT22;63499;53.232;7.492;2022-09-23T00:35:22;10.60;99.90
74934;DHT22;63499;53.232;7.492;2022-09-23T00:37:48;10.70;99.90
74934;DHT22;63499;53.232;7.492;2022-09-23T00:40:14;10.60;99.90
74934;DHT22;63499;53.232;7.492;2022-09-23T00:42:48;10.60;99.90
74934;DHT22;63499;53.232;7.492;2022-09-23T00:45:15;10.60;99.90
74934;DHT22;63499;53.232;7.492;2022-09-23T00:48:01;10.60;99.90
74934;DHT22;63499;53.232;7.492;2022-09-23T00:50:34;10.60;99.90
74934;DHT22;63499;53.232;7.492;2022-09-23T00:53:05;10.50;99.90
74934;DHT22;63499;53.232;7.492;2022-09-23T00:55:37;10.50;99.90
74934;DHT22;63499;53.232;7.492;2022-09-23T00:58:07;10.50;99.90
74934;DHT22;63499;53.232;7.492;2022-09-23T01:00:34;10.60;99.90
74934;DHT22;63499;53.232;7.492;2022-09-23T01:03:01;10.50;99.90
74934;DHT22;63499;53.232;7.492;2022-09-23T01:05:27;10.50;99.90
74934;DHT22;63499;53.232;7.492;2022-09-23T01:07:56;10.50;99.90
74934;DHT22;63499;53.232;7.492;2022-09-23T01:10:23;10.50;99.90
74934;DHT22;63499;53.232;7.492;2022-09-23T01:16:10;10.50;99.90
74934;DHT22;63499;53.232;7.492;2022-09-23T01:35:25;10.30;99.90
74934;DHT22;63499;53.232;7.492;2022-09-23T01:38:13;10.30;99.90
74934;DHT22;63499;53.232;7.492;2022-09-23T01:44:09;10.30;99.90
74934;DHT22;63499;53.232;7.492;2022-09-23T01:46:34;10.20;99.90
74934;DHT22;63499;53.232;7.492;2022-09-23T01:51:41;10.20;99.90
74934;DHT22;63499;53.232;7.492;2022-09-23T01:54:17;10.20;99.90
74934;DHT22;63499;53.232;7.492;2022-09-23T01:57:00;10.20;99.90
74934;DHT22;63499;53.232;7.492;2022-09-23T01:59:39;10.10;99.90
74934;DHT22;63499;53.232;7.492;2022-09-23T02:02:13;10.10;99.90
74934;DHT22;63499;53.232;7.492;2022-09-23T02:04:48;10.20;99.90
74934;DHT22;63499;53.232;7.492;2022-09-23T02:07:21;10.10;99.90
74934;DHT22;63499;53.232;7.492;2022-09-23T02:09:56;10.10;99.90
74934;DHT22;63499;53.232;7.492;2022-09-23T02:12:26;10.10;99.90
74934;DHT22;63499;53.232;7.492;2022-09-23T02:15:05;10.20;99.90
74934;DHT22;63499;53.232;7.492;2022-09-23T02:17:47;10.10;99.90
74934;DHT22;63499;53.232;7.492;2022-09-23T02:20:18;10.10;99.90
74934;DHT22;63499;53.232;7.492;2022-09-23T02:23:05;10.10;99.90
74934;DHT22;63499;53.232;7.492;2022-09-23T02:26:03;10.10;99.90
74934;DHT22;63499;53.232;7.492;2022-09-23T02:28:45;10.00;99.90
74934;DHT22;63499;53.232;7.492;2022-09-23T02:34:14;10.00;99.90
74934;DHT22;63499;53.232;7.492;2022-09-23T02:36:58;10.00;99.90
74934;DHT22;63499;53.232;7.492;2022-09-23T02:39:47;10.00;99.90
74934;DHT22;63499;53.232;7.492;2022-09-23T02:42:21;10.00;99.90
74934;DHT22;63499;53.232;7.492;2022-09-23T02:44:48;10.00;99.90
74934;DHT22;63499;53.232;7.492;2022-09-23T02:47:18;9.90;99.90
74934;DHT22;63499;53.232;7.492;2022-09-23T02:49:46;9.90;99.90
74934;DHT22;63499;53.232;7.492;2022-09-23T02:52:12;9.90;99.90
74934;DHT22;63499;53.232;7.492;2022-09-23T02:54:38;9.90;99.90
74934;DHT22;63499;53.232;7.492;2022-09-23T02:57:06;9.90;99.90
74934;DHT22;63499;53.232;7.492;2022-09-23T02:59:34;9.90;99.90
74934;DHT22;63499;53.232;7.492;2022-09-23T03:07:08;9.80;99.90
74934;DHT22;63499;53.232;7.492;2022-09-23T03:12:27;9.70;99.90
74934;DHT22;63499;53.232;7.492;2022-09-23T03:21:05;9.70;99.90
74934;DHT22;63499;53.232;7.492;2022-09-23T03:23:35;9.60;99.90
74934;DHT22;63499;53.232;7.492;2022-09-23T03:26:07;9.60;99.90
74934;DHT22;63499;53.232;7.492;2022-09-23T03:28:35;9.60;99.90
74934;DHT22;63499;53.232;7.492;2022-09-23T03:31:02;9.60;99.90
74934;DHT22;63499;53.232;7.492;2022-09-23T03:33:29;9.50;99.90
74934;DHT22;63499;53.232;7.492;2022-09-23T03:36:03;9.50;99.90
74934;DHT22;63499;53.232;7.492;2022-09-23T03:38:50;9.50;99.90
74934;DHT22;63499;53.232;7.492;2022-09-23T03:41:33;9.50;99.90
74934;DHT22;63499;53.232;7.492;2022-09-23T03:44:02;9.50;99.90
74934;DHT22;63499;53.232;7.492;2022-09-23T03:46:28;9.50;99.90
74934;DHT22;63499;53.232;7.492;2022-09-23T03:49:16;9.50;99.90
74934;DHT22;63499;53.232;7.492;2022-09-23T03:51:52;9.50;99.90
74934;DHT22;63499;53.232;7.492;2022-09-23T03:54:18;9.50;99.90
74934;DHT22;63499;53.232;7.492;2022-09-23T03:56:45;9.50;99.90
74934;DHT22;63499;53.232;7.492;2022-09-23T03:59:15;9.50;99.90
74934;DHT22;63499;53.232;7.492;2022-09-23T04:01:41;9.50;99.90
74934;DHT22;63499;53.232;7.492;2022-09-23T04:04:08;9.40;99.90
74934;DHT22;63499;53.232;7.492;2022-09-23T04:06:35;9.40;99.90
74934;DHT22;63499;53.232;7.492;2022-09-23T04:09:01;9.40;99.90
74934;DHT22;63499;53.232;7.492;2022-09-23T04:11:27;9.30;99.90
74934;DHT22;63499;53.232;7.492;2022-09-23T04:13:56;9.30;99.90
74934;DHT22;63499;53.232;7.492;2022-09-23T04:16:29;9.30;99.90
74934;DHT22;63499;53.232;7.492;2022-09-23T04:19:01;9.30;99.90
74934;DHT22;63499;53.232;7.492;2022-09-23T04:21:27;9.20;99.90
74934;DHT22;63499;53.232;7.492;2022-09-23T04:23:56;9.20;99.90
74934;DHT22;63499;53.232;7.492;2022-09-23T04:26:22;9.20;99.90
74934;DHT22;63499;53.232;7.492;2022-09-23T04:28:48;9.20;99.90
74934;DHT22;63499;53.232;7.492;2022-09-23T04:31:14;9.20;99.90
74934;DHT22;63499;53.232;7.492;2022-09-23T04:33:40;9.20;99.90
74934;DHT22;63499;53.232;7.492;2022-09-23T04:36:07;9.20;99.90
74934;DHT22;63499;53.232;7.492;2022-09-23T04:38:33;9.10;99.90
74934;DHT22;63499;53.232;7.492;2022-09-23T04:40:59;9.20;99.90
74934;DHT22;63499;53.232;7.492;2022-09-23T04:43:26;9.10;99.90
74934;DHT22;63499;53.232;7.492;2022-09-23T04:46:03;9.10;99.90
74934;DHT22;63499;53.232;7.492;2022-09-23T04:48:30;9.10;99.90
74934;DHT22;63499;53.232;7.492;2022-09-23T04:51:08;9.10;99.90
74934;DHT22;63499;53.232;7.492;2022-09-23T04:53:35;9.00;99.90
74934;DHT22;63499;53.232;7.492;2022-09-23T04:56:03;9.00;99.90
74934;DHT22;63499;53.232;7.492;2022-09-23T04:58:30;9.00;99.90
74934;DHT22;63499;53.232;7.492;2022-09-23T05:00:56;9.00;99.90
74934;DHT22;63499;53.232;7.492;2022-09-23T05:03:30;9.00;99.90
74934;DHT22;63499;53.232;7.492;2022-09-23T05:05:59;9.00;99.90
74934;DHT22;63499;53.232;7.492;2022-09-23T05:08:27;9.00;99.90
74934;DHT22;63499;53.232;7.492;2022-09-23T05:11:01;9.00;99.90
74934;DHT22;63499;53.232;7.492;2022-09-23T05:13:30;9.00;99.90
74934;DHT22;63499;53.232;7.492;2022-09-23T05:16:02;9.00;99.90
74934;DHT22;63499;53.232;7.492;2022-09-23T05:18:38;9.00;99.90
74934;DHT22;63499;53.232;7.492;2022-09-23T05:21:16;9.00;99.90
74934;DHT22;63499;53.232;7.492;2022-09-23T05:23:49;8.90;99.90
74934;DHT22;63499;53.232;7.492;2022-09-23T05:26:19;9.00;99.90
74934;DHT22;63499;53.232;7.492;2022-09-23T05:28:49;8.90;99.90
74934;DHT22;63499;53.232;7.492;2022-09-23T05:31:19;8.90;99.90
74934;DHT22;63499;53.232;7.492;2022-09-23T05:33:51;8.90;99.90
74934;DHT22;63499;53.232;7.492;2022-09-23T05:36:18;8.90;99.90
74934;DHT22;63499;53.232;7.492;2022-09-23T05:38:45;8.90;99.90
74934;DHT22;63499;53.232;7.492;2022-09-23T05:41:12;9.00;99.90
74934;DHT22;63499;53.232;7.492;2022-09-23T05:43:39;9.00;99.90
74934;DHT22;63499;53.232;7.492;2022-09-23T05:46:13;9.00;99.90
74934;DHT22;63499;53.232;7.492;2022-09-23T05:48:40;9.00;99.90
74934;DHT22;63499;53.232;7.492;2022-09-23T05:51:09;9.00;99.90
74934;DHT22;63499;53.232;7.492;2022-09-23T05:53:42;9.00;99.90
74934;DHT22;63499;53.232;7.492;2022-09-23T05:56:16;9.10;99.90
74934;DHT22;63499;53.232;7.492;2022-09-23T05:58:43;9.10;99.90
74934;DHT22;63499;53.232;7.492;2022-09-23T06:01:15;9.10;99.90
74934;DHT22;63499;53.232;7.492;2022-09-23T06:03:51;9.10;99.90
74934;DHT22;63499;53.232;7.492;2022-09-23T06:06:27;9.20;99.90
74934;DHT22;63499;53.232;7.492;2022-09-23T06:09:03;9.20;99.90
74934;DHT22;63499;53.232;7.492;2022-09-23T06:11:36;9.30;99.90
74934;DHT22;63499;53.232;7.492;2022-09-23T06:14:11;9.30;99.90
74934;DHT22;63499;53.232;7.492;2022-09-23T06:16:38;9.30;99.90
74934;DHT22;63499;53.232;7.492;2022-09-23T06:19:04;9.30;99.90
74934;DHT22;63499;53.232;7.492;2022-09-23T06:21:31;9.30;99.90
74934;DHT22;63499;53.232;7.492;2022-09-23T06:23:58;9.40;99.90
74934;DHT22;63499;53.232;7.492;2022-09-23T06:26:28;9.40;99.90
74934;DHT22;63499;53.232;7.492;2022-09-23T06:29:11;9.40;99.90
74934;DHT22;63499;53.232;7.492;2022-09-23T06:31:37;9.40;99.90
74934;DHT22;63499;53.232;7.492;2022-09-23T06:34:11;9.50;99.90
74934;DHT22;63499;53.232;7.492;2022-09-23T06:36:37;9.50;99.90
74934;DHT22;63499;53.232;7.492;2022-09-23T06:39:04;9.40;99.90
74934;DHT22;63499;53.232;7.492;2022-09-23T06:41:30;9.50;99.90
74934;DHT22;63499;53.232;7.492;2022-09-23T06:43:57;9.50;99.90
74934;DHT22;63499;53.232;7.492;2022-09-23T06:46:23;9.50;99.90
74934;DHT22;63499;53.232;7.492;2022-09-23T06:48:50;9.60;99.90
74934;DHT22;63499;53.232;7.492;2022-09-23T06:51:23;9.60;99.90
74934;DHT22;63499;53.232;7.492;2022-09-23T06:53:49;9.70;99.90
74934;DHT22;63499;53.232;7.492;2022-09-23T06:56:16;9.80;99.90
74934;DHT22;63499;53.232;7.492;2022-09-23T06:58:44;9.80;99.90
74934;DHT22;63499;53.232;7.492;2022-09-23T07:01:14;9.90;99.90
74934;DHT22;63499;53.232;7.492;2022-09-23T07:03:41;9.90;99.90
74934;DHT22;63499;53.232;7.492;2022-09-23T07:06:08;9.90;99.90
74934;DHT22;63499;53.232;7.492;2022-09-23T07:08:34;10.00;99.90
74934;DHT22;63499;53.232;7.492;2022-09-23T07:11:03;10.10;99.90
74934;DHT22;63499;53.232;7.492;2022-09-23T07:13:30;10.20;99.90
74934;DHT22;63499;53.232;7.492;2022-09-23T07:15:58;10.30;99.90
74934;DHT22;63499;53.232;7.492;2022-09-23T07:18:33;10.40;99.90
74934;DHT22;63499;53.232;7.492;2022-09-23T07:21:16;10.60;99.90
74934;DHT22;63499;53.232;7.492;2022-09-23T07:23:47;10.70;99.90
74934;DHT22;63499;53.232;7.492;2022-09-23T07:26:16;10.90;99.90
74934;DHT22;63499;53.232;7.492;2022-09-23T07:28:43;10.90;99.90
74934;DHT22;63499;53.232;7.492;2022-09-23T07:31:12;10.90;99.90
74934;DHT22;63499;53.232;7.492;2022-09-23T07:33:40;11.10;99.90
74934;DHT22;63499;53.232;7.492;2022-09-23T07:36:13;11.20;99.90
74934;DHT22;63499;53.232;7.492;2022-09-23T07:38:45;11.40;99.90
74934;DHT22;63499;53.232;7.492;2022-09-23T07:41:16;11.60;99.90
74934;DHT22;63499;53.232;7.492;2022-09-23T07:43:49;11.80;99.90
74934;DHT22;63499;53.232;7.492;2022-09-23T07:46:29;11.90;99.90
74934;DHT22;63499;53.232;7.492;2022-09-23T07:49:08;12.00;99.90
74934;DHT22;63499;53.232;7.492;2022-09-23T07:51:36;12.10;99.90
74934;DHT22;63499;53.232;7.492;2022-09-23T07:54:05;12.20;99.90
74934;DHT22;63499;53.232;7.492;2022-09-23T07:56:33;12.30;99.90
74934;DHT22;63499;53.232;7.492;2022-09-23T07:59:05;12.30;99.90
74934;DHT22;63499;53.232;7.492;2022-09-23T08:01:38;12.40;99.90
74934;DHT22;63499;53.232;7.492;2022-09-23T08:04:14;12.40;99.90
74934;DHT22;63499;53.232;7.492;2022-09-23T08:06:43;12.30;99.90
74934;DHT22;63499;53.232;7.492;2022-09-23T08:09:11;12.30;99.90
74934;DHT22;63499;53.232;7.492;2022-09-23T08:11:38;12.40;99.90
74934;DHT22;63499;53.232;7.492;2022-09-23T08:14:11;12.50;99.90
74934;DHT22;63499;53.232;7.492;2022-09-23T08:16:39;12.70;99.90
74934;DHT22;63499;53.232;7.492;2022-09-23T08:19:06;12.80;99.90
74934;DHT22;63499;53.232;7.492;2022-09-23T08:21:33;12.80;99.90
74934;DHT22;63499;53.232;7.492;2022-09-23T08:23:59;12.90;99.90
74934;DHT22;63499;53.232;7.492;2022-09-23T08:26:27;13.00;99.90
74934;DHT22;63499;53.232;7.492;2022-09-23T08:28:54;13.20;99.90
74934;DHT22;63499;53.232;7.492;2022-09-23T08:31:22;13.30;99.90
74934;DHT22;63499;53.232;7.492;2022-09-23T08:33:58;13.30;99.90
74934;DHT22;63499;53.232;7.492;2022-09-23T08:36:37;13.40;99.90
74934;DHT22;63499;53.232;7.492;2022-09-23T08:39:04;13.60;99.90
74934;DHT22;63499;53.232;7.492;2022-09-23T08:47:07;13.70;99.90
74934;DHT22;63499;53.232;7.492;2022-09-23T08:50:21;13.70;99.90
74934;DHT22;63499;53.232;7.492;2022-09-23T08:53:04;13.70;99.90
74934;DHT22;63499;53.232;7.492;2022-09-23T08:55:34;13.70;99.90
74934;DHT22;63499;53.232;7.492;2022-09-23T09:00:49;13.60;99.90
74934;DHT22;63499;53.232;7.492;2022-09-23T09:03:33;13.60;99.90
74934;DHT22;63499;53.232;7.492;2022-09-23T09:06:00;13.70;99.90
74934;DHT22;63499;53.232;7.492;2022-09-23T09:08:36;13.70;99.90
74934;DHT22;63499;53.232;7.492;2022-09-23T09:11:04;13.60;99.90
74934;DHT22;63499;53.232;7.492;2022-09-23T09:13:33;13.70;99.90
74934;DHT22;63499;53.232;7.492;2022-09-23T09:16:40;13.70;99.90
74934;DHT22;63499;53.232;7.492;2022-09-23T09:19:19;13.80;99.90
74934;DHT22;63499;53.232;7.492;2022-09-23T09:21:52;13.90;99.90
74934;DHT22;63499;53.232;7.492;2022-09-23T09:24:31;14.10;99.90
74934;DHT22;63499;53.232;7.492;2022-09-23T09:27:00;14.20;99.90
74934;DHT22;63499;53.232;7.492;2022-09-23T09:29:37;14.30;99.90
74934;DHT22;63499;53.232;7.492;2022-09-23T09:34:59;14.40;99.90
74934;DHT22;63499;53.232;7.492;2022-09-23T09:37:42;14.40;99.90
74934;DHT22;63499;53.232;7.492;2022-09-23T09:40:12;14.40;99.90
74934;DHT22;63499;53.232;7.492;2022-09-23T09:42:40;14.40;99.90
74934;DHT22;63499;53.232;7.492;2022-09-23T09:50:47;14.40;99.90
74934;DHT22;63499;53.232;7.492;2022-09-23T09:55:58;14.50;99.90
74934;DHT22;63499;53.232;7.492;2022-09-23T09:58:28;14.60;99.90
74934;DHT22;63499;53.232;7.492;2022-09-23T10:01:01;14.80;99.90
74934;DHT22;63499;53.232;7.492;2022-09-23T10:03:42;14.90;99.90
74934;DHT22;63499;53.232;7.492;2022-09-23T10:06:23;15.10;99.90
74934;DHT22;63499;53.232;7.492;2022-09-23T10:09:09;15.20;99.90
74934;DHT22;63499;53.232;7.492;2022-09-23T10:11:37;15.40;99.90
74934;DHT22;63499;53.232;7.492;2022-09-23T10:14:14;15.50;99.90
74934;DHT22;63499;53.232;7.492;2022-09-23T10:17:04;15.40;99.90
74934;DHT22;63499;53.232;7.492;2022-09-23T10:19:35;15.40;99.90
74934;DHT22;63499;53.232;7.492;2022-09-23T10:22:13;15.50;99.90
74934;DHT22;63499;53.232;7.492;2022-09-23T10:24:52;15.60;99.90
74934;DHT22;63499;53.232;7.492;2022-09-23T10:27:31;15.50;99.90
74934;DHT22;63499;53.232;7.492;2022-09-23T10:30:24;15.50;99.90
74934;DHT22;63499;53.232;7.492;2022-09-23T10:32:51;15.50;99.90
74934;DHT22;63499;53.232;7.492;2022-09-23T10:35:22;15.40;99.90
74934;DHT22;63499;53.232;7.492;2022-09-23T10:37:58;15.40;99.90
74934;DHT22;63499;53.232;7.492;2022-09-23T10:40:39;15.30;99.90
74934;DHT22;63499;53.232;7.492;2022-09-23T10:46:44;15.30;99.90
74934;DHT22;63499;53.232;7.492;2022-09-23T10:52:34;15.30;99.90
74934;DHT22;63499;53.232;7.492;2022-09-23T11:00:44;15.40;99.90
74934;DHT22;63499;53.232;7.492;2022-09-23T11:08:52;15.60;99.90
74934;DHT22;63499;53.232;7.492;2022-09-23T11:11:30;15.60;99.90
74934;DHT22;63499;53.232;7.492;2022-09-23T11:33:52;15.90;99.90
74934;DHT22;63499;53.232;7.492;2022-09-23T11:36:40;15.90;99.90
74934;DHT22;63499;53.232;7.492;2022-09-23T11:39:43;15.90;99.90
74934;DHT22;63499;53.232;7.492;2022-09-23T11:42:37;16.00;99.90
74934;DHT22;63499;53.232;7.492;2022-09-23T11:45:19;16.10;99.90
74934;DHT22;63499;53.232;7.492;2022-09-23T11:47:57;16.10;99.90
74934;DHT22;63499;53.232;7.492;2022-09-23T11:56:20;16.10;99.90
74934;DHT22;63499;53.232;7.492;2022-09-23T12:07:07;16.30;99.90
74934;DHT22;63499;53.232;7.492;2022-09-23T12:17:42;16.40;99.90
74934;DHT22;63499;53.232;7.492;2022-09-23T12:20:39;16.50;99.90
74934;DHT22;63499;53.232;7.492;2022-09-23T12:25:50;16.60;99.90
74934;DHT22;63499;53.232;7.492;2022-09-23T12:28:27;16.70;99.90
74934;DHT22;63499;53.232;7.492;2022-09-23T12:30:57;16.60;99.90
74934;DHT22;63499;53.232;7.492;2022-09-23T12:33:26;16.70;99.90
74934;DHT22;63499;53.232;7.492;2022-09-23T12:36:09;16.70;99.90
74934;DHT22;63499;53.232;7.492;2022-09-23T12:38:52;16.80;99.90
74934;DHT22;63499;53.232;7.492;2022-09-23T12:46:45;17.00;99.90
74934;DHT22;63499;53.232;7.492;2022-09-23T12:49:35;17.00;99.90
74934;DHT22;63499;53.232;7.492;2022-09-23T12:54:41;17.10;99.90
74934;DHT22;63499;53.232;7.492;2022-09-23T13:02:25;17.30;99.90
74934;DHT22;63499;53.232;7.492;2022-09-23T13:05:12;17.30;99.90
74934;DHT22;63499;53.232;7.492;2022-09-23T13:08:07;17.40;99.90
74934;DHT22;63499;53.232;7.492;2022-09-23T13:11:01;17.30;99.90
74934;DHT22;63499;53.232;7.492;2022-09-23T13:13:35;17.30;99.90
74934;DHT22;63499;53.232;7.492;2022-09-23T13:18:53;17.20;99.90
74934;DHT22;63499;53.232;7.492;2022-09-23T13:27:02;17.10;99.90
74934;DHT22;63499;53.232;7.492;2022-09-23T13:32:02;17.10;99.90
74934;DHT22;63499;53.232;7.492;2022-09-23T13:34:32;17.10;99.90
74934;DHT22;63499;53.232;7.492;2022-09-23T13:37:20;17.10;99.90
74934;DHT22;63499;53.232;7.492;2022-09-23T13:39:46;17.10;99.90
74934;DHT22;63499;53.232;7.492;2022-09-23T13:42:23;17.10;99.90
74934;DHT22;63499;53.232;7.492;2022-09-23T13:44:56;17.00;99.90
74934;DHT22;63499;53.232;7.492;2022-09-23T13:47:29;17.00;99.90
74934;DHT22;63499;53.232;7.492;2022-09-23T13:49:56;17.00;99.90
74934;DHT22;63499;53.232;7.492;2022-09-23T13:52:26;17.00;99.90
74934;DHT22;63499;53.232;7.492;2022-09-23T13:54:59;17.00;99.90
74934;DHT22;63499;53.232;7.492;2022-09-23T13:57:33;17.10;99.90
74934;DHT22;63499;53.232;7.492;2022-09-23T14:02:41;17.10;99.90
74934;DHT22;63499;53.232;7.492;2022-09-23T14:05:12;17.20;99.90
74934;DHT22;63499;53.232;7.492;2022-09-23T14:07:38;17.30;99.90
74934;DHT22;63499;53.232;7.492;2022-09-23T14:10:05;17.40;99.90
74934;DHT22;63499;53.232;7.492;2022-09-23T14:12:37;17.40;99.90
74934;DHT22;63499;53.232;7.492;2022-09-23T14:15:04;17.40;99.90
74934;DHT22;63499;53.232;7.492;2022-09-23T14:17:31;17.30;99.90
74934;DHT22;63499;53.232;7.492;2022-09-23T14:19:57;17.30;99.90
74934;DHT22;63499;53.232;7.492;2022-09-23T14:22:28;17.30;99.90
74934;DHT22;63499;53.232;7.492;2022-09-23T14:24:55;17.30;99.90
74934;DHT22;63499;53.232;7.492;2022-09-23T14:27:32;17.30;99.90
74934;DHT22;63499;53.232;7.492;2022-09-23T14:30:01;17.30;99.90
74934;DHT22;63499;53.232;7.492;2022-09-23T14:32:28;17.30;99.90
74934;DHT22;63499;53.232;7.492;2022-09-23T14:40:32;17.20;99.90
74934;DHT22;63499;53.232;7.492;2022-09-23T14:43:19;17.10;99.90
74934;DHT22;63499;53.232;7.492;2022-09-23T14:45:55;17.10;99.90
74934;DHT22;63499;53.232;7.492;2022-09-23T14:48:27;17.00;99.90
74934;DHT22;63499;53.232;7.492;2022-09-23T14:58:53;16.90;99.90
74934;DHT22;63499;53.232;7.492;2022-09-23T15:01:34;16.80;99.90
74934;DHT22;63499;53.232;7.492;2022-09-23T15:04:33;16.70;99.90
74934;DHT22;63499;53.232;7.492;2022-09-23T15:07:20;16.70;99.90
74934;DHT22;63499;53.232;7.492;2022-09-23T15:09:48;16.60;99.90
74934;DHT22;63499;53.232;7.492;2022-09-23T15:12:16;16.60;99.90
74934;DHT22;63499;53.232;7.492;2022-09-23T15:14:50;16.70;99.90
74934;DHT22;63499;53.232;7.492;2022-09-23T15:20:03;16.70;99.90
74934;DHT22;63499;53.232;7.492;2022-09-23T15:22:30;16.70;99.90
74934;DHT22;63499;53.232;7.492;2022-09-23T15:25:24;16.70;99.90
74934;DHT22;63499;53.232;7.492;2022-09-23T15:30:34;16.60;99.90
74934;DHT22;63499;53.232;7.492;2022-09-23T15:33:00;16.50;99.90
74934;DHT22;63499;53.232;7.492;2022-09-23T15:35:27;16.50;99.90
74934;DHT22;63499;53.232;7.492;2022-09-23T15:37:56;16.50;99.90
74934;DHT22;63499;53.232;7.492;2022-09-23T15:40:33;16.50;99.90
74934;DHT22;63499;53.232;7.492;2022-09-23T15:43:06;16.40;99.90
74934;DHT22;63499;53.232;7.492;2022-09-23T15:45:37;16.40;99.90
74934;DHT22;63499;53.232;7.492;2022-09-23T15:48:13;16.40;99.90
74934;DHT22;63499;53.232;7.492;2022-09-23T15:50:40;16.30;99.90
74934;DHT22;63499;53.232;7.492;2022-09-23T15:53:18;16.30;99.90
74934;DHT22;63499;53.232;7.492;2022-09-23T15:55:45;16.20;99.90
74934;DHT22;63499;53.232;7.492;2022-09-23T15:58:11;16.20;99.90
74934;DHT22;63499;53.232;7.492;2022-09-23T16:00:37;16.20;99.90
74934;DHT22;63499;53.232;7.492;2022-09-23T16:03:04;16.20;99.90
74934;DHT22;63499;53.232;7.492;2022-09-23T16:05:37;16.10;99.90
74934;DHT22;63499;53.232;7.492;2022-09-23T16:08:05;16.10;99.90
74934;DHT22;63499;53.232;7.492;2022-09-23T16:10:32;16.10;99.90
74934;DHT22;63499;53.232;7.492;2022-09-23T16:13:01;16.10;99.90
74934;DHT22;63499;53.232;7.492;2022-09-23T16:15:30;16.10;99.90
74934;DHT22;63499;53.232;7.492;2022-09-23T16:17:57;16.10;99.90
74934;DHT22;63499;53.232;7.492;2022-09-23T16:20:25;16.00;99.90
74934;DHT22;63499;53.232;7.492;2022-09-23T16:25:45;16.00;99.90
74934;DHT22;63499;53.232;7.492;2022-09-23T16:28:11;15.90;99.90
74934;DHT22;63499;53.232;7.492;2022-09-23T16:30:37;16.00;99.90
74934;DHT22;63499;53.232;7.492;2022-09-23T16:33:03;15.90;99.90
74934;DHT22;63499;53.232;7.492;2022-09-23T16:35:30;15.90;99.90
74934;DHT22;63499;53.232;7.492;2022-09-23T16:37:58;15.90;99.90
74934;DHT22;63499;53.232;7.492;2022-09-23T16:40:24;15.90;99.90
74934;DHT22;63499;53.232;7.492;2022-09-23T16:42:51;15.80;99.90
74934;DHT22;63499;53.232;7.492;2022-09-23T16:45:20;15.80;99.90
74934;DHT22;63499;53.232;7.492;2022-09-23T16:48:00;15.80;99.90
74934;DHT22;63499;53.232;7.492;2022-09-23T16:50:26;15.70;99.90
74934;DHT22;63499;53.232;7.492;2022-09-23T16:52:54;15.70;99.90
74934;DHT22;63499;53.232;7.492;2022-09-23T16:55:21;15.70;99.90
74934;DHT22;63499;53.232;7.492;2022-09-23T16:57:49;15.60;99.90
74934;DHT22;63499;53.232;7.492;2022-09-23T17:00:16;15.60;99.90
74934;DHT22;63499;53.232;7.492;2022-09-23T17:03:01;15.60;99.90
74934;DHT22;63499;53.232;7.492;2022-09-23T17:05:48;15.50;99.90
74934;DHT22;63499;53.232;7.492;2022-09-23T17:08:15;15.50;99.90
74934;DHT22;63499;53.232;7.492;2022-09-23T17:10:43;15.50;99.90
74934;DHT22;63499;53.232;7.492;2022-09-23T17:13:11;15.40;99.90
74934;DHT22;63499;53.232;7.492;2022-09-23T17:15:42;15.40;99.90
74934;DHT22;63499;53.232;7.492;2022-09-23T17:18:09;15.40;99.90
74934;DHT22;63499;53.232;7.492;2022-09-23T17:20:36;15.40;99.90
74934;DHT22;63499;53.232;7.492;2022-09-23T17:23:03;15.30;99.90
74934;DHT22;63499;53.232;7.492;2022-09-23T17:25:31;15.30;99.90
74934;DHT22;63499;53.232;7.492;2022-09-23T17:27:57;15.30;99.90
74934;DHT22;63499;53.232;7.492;2022-09-23T17:30:23;15.20;99.90
74934;DHT22;63499;53.232;7.492;2022-09-23T17:33:04;15.20;99.90
74934;DHT22;63499;53.232;7.492;2022-09-23T17:35:30;15.20;99.90
74934;DHT22;63499;53.232;7.492;2022-09-23T17:37:57;15.20;99.90
74934;DHT22;63499;53.232;7.492;2022-09-23T17:40:23;15.10;99.90
74934;DHT22;63499;53.232;7.492;2022-09-23T17:42:51;15.10;99.90
74934;DHT22;63499;53.232;7.492;2022-09-23T17:45:20;15.10;99.90
74934;DHT22;63499;53.232;7.492;2022-09-23T17:47:46;15.10;99.90
74934;DHT22;63499;53.232;7.492;2022-09-23T17:50:20;15.10;99.90
74934;DHT22;63499;53.232;7.492;2022-09-23T17:52:47;15.10;99.90
74934;DHT22;63499;53.232;7.492;2022-09-23T17:55:13;15.00;99.90
74934;DHT22;63499;53.232;7.492;2022-09-23T17:57:41;15.00;99.90
74934;DHT22;63499;53.232;7.492;2022-09-23T18:00:08;15.00;99.90
74934;DHT22;63499;53.232;7.492;2022-09-23T18:02:37;15.00;99.90
74934;DHT22;63499;53.232;7.492;2022-09-23T18:05:04;14.90;99.90
74934;DHT22;63499;53.232;7.492;2022-09-23T18:07:31;14.90;99.90
74934;DHT22;63499;53.232;7.492;2022-09-23T18:09:57;14.90;99.90
74934;DHT22;63499;53.232;7.492;2022-09-23T18:12:23;14.90;99.90
74934;DHT22;63499;53.232;7.492;2022-09-23T18:14:49;14.90;99.90
74934;DHT22;63499;53.232;7.492;2022-09-23T18:17:16;14.80;99.90
74934;DHT22;63499;53.232;7.492;2022-09-23T18:19:42;14.80;99.90
74934;DHT22;63499;53.232;7.492;2022-09-23T18:22:11;14.80;99.90
74934;DHT22;63499;53.232;7.492;2022-09-23T18:24:37;14.80;99.90
74934;DHT22;63499;53.232;7.492;2022-09-23T18:27:05;14.80;99.90
74934;DHT22;63499;53.232;7.492;2022-09-23T18:29:32;14.80;99.90
74934;DHT22;63499;53.232;7.492;2022-09-23T18:31:59;14.80;99.90
74934;DHT22;63499;53.232;7.492;2022-09-23T18:34:26;14.70;99.90
74934;DHT22;63499;53.232;7.492;2022-09-23T18:36:53;14.70;99.90
74934;DHT22;63499;53.232;7.492;2022-09-23T18:39:20;14.70;99.90
74934;DHT22;63499;53.232;7.492;2022-09-23T18:41:46;14.70;99.90
74934;DHT22;63499;53.232;7.492;2022-09-23T18:44:15;14.70;99.90
74934;DHT22;63499;53.232;7.492;2022-09-23T18:46:41;14.70;99.90
74934;DHT22;63499;53.232;7.492;2022-09-23T18:49:09;14.70;99.90
74934;DHT22;63499;53.232;7.492;2022-09-23T18:51:56;14.70;99.90
74934;DHT22;63499;53.232;7.492;2022-09-23T18:54:23;14.70;99.90
74934;DHT22;63499;53.232;7.492;2022-09-23T18:56:54;14.70;99.90